createdAt,value
2017-07-17T00:01:07.845Z,7.30
2017-07-17T00:03:36.195Z,6.90
2017-07-17T00:06:05.129Z,6.40
2017-07-17T00:08:33.464Z,7.57
2017-07-17T00:11:01.809Z,7.50
2017-07-17T00:13:30.411Z,6.80
2017-07-17T00:15:58.744Z,6.90
2017-07-17T00:18:27.108Z,8.27
2017-07-17T00:20:55.789Z,7.60
2017-07-17T00:23:24.138Z,8.20
2017-07-17T00:25:52.458Z,7.33
2017-07-17T00:28:21.461Z,7.00
2017-07-17T00:30:49.783Z,7.30
2017-07-17T00:33:18.119Z,7.57
2017-07-17T00:35:46.896Z,7.70
2017-07-17T00:38:15.268Z,7.27
2017-07-17T00:40:43.579Z,7.20
2017-07-17T00:43:12.197Z,7.97
2017-07-17T00:45:40.528Z,8.00
2017-07-17T00:48:08.867Z,8.10
2017-07-17T00:50:37.719Z,8.30
2017-07-17T00:53:06.041Z,7.00
2017-07-17T00:55:34.363Z,8.17
2017-07-17T00:58:03.230Z,7.43
2017-07-17T01:00:31.551Z,7.83
2017-07-17T01:02:59.868Z,8.90
2017-07-17T01:05:28.505Z,9.20
2017-07-17T01:07:56.829Z,7.93
2017-07-17T01:10:25.946Z,8.17
2017-07-17T01:12:54.921Z,8.40
2017-07-17T01:15:23.245Z,7.20
2017-07-17T01:17:51.575Z,7.70
2017-07-17T01:20:20.395Z,8.83
2017-07-17T01:22:48.726Z,8.50
2017-07-17T01:25:17.077Z,7.43
2017-07-17T01:27:45.676Z,8.17
2017-07-17T01:30:13.992Z,7.80
2017-07-17T01:32:43.107Z,7.40
2017-07-17T01:35:11.886Z,6.73
2017-07-17T01:37:40.224Z,8.60
2017-07-17T01:40:08.562Z,9.13
2017-07-17T01:42:37.181Z,7.97
2017-07-17T01:45:05.518Z,8.10
2017-07-17T01:47:33.855Z,7.73
2017-07-17T01:50:02.785Z,7.20
2017-07-17T01:52:31.140Z,8.13
2017-07-17T01:55:00.232Z,7.90
2017-07-17T01:57:29.374Z,8.10
2017-07-17T01:59:57.719Z,8.37
2017-07-17T02:02:26.050Z,7.23
2017-07-17T02:04:54.721Z,7.47
2017-07-17T02:07:23.051Z,7.67
2017-07-17T02:09:52.160Z,8.57
2017-07-17T02:12:20.822Z,9.03
2017-07-17T02:14:49.171Z,8.40
2017-07-17T02:17:17.523Z,8.47
2017-07-17T02:19:46.320Z,7.60
2017-07-17T02:22:14.660Z,8.57
2017-07-17T02:24:43.002Z,7.80
2017-07-17T02:27:11.858Z,9.37
2017-07-17T02:29:40.198Z,9.30
2017-07-17T02:32:08.547Z,8.17
2017-07-17T02:34:37.292Z,7.90
2017-07-17T02:37:05.648Z,8.47
2017-07-17T02:39:33.976Z,8.30
2017-07-17T02:42:02.942Z,8.20
2017-07-17T02:44:31.261Z,8.80
2017-07-17T02:46:59.599Z,7.47
2017-07-17T02:49:29.073Z,8.63
2017-07-17T02:51:58.283Z,8.83
2017-07-17T02:54:26.616Z,7.83
2017-07-17T02:56:55.246Z,8.03
2017-07-17T02:59:23.583Z,8.83
2017-07-17T03:01:51.931Z,8.27
2017-07-17T03:04:20.924Z,8.30
2017-07-17T03:06:49.260Z,9.20
2017-07-17T03:09:17.597Z,9.20
2017-07-17T03:11:46.364Z,7.40
2017-07-17T03:14:14.706Z,8.43
2017-07-17T03:16:43.055Z,9.37
2017-07-17T03:19:11.815Z,8.87
2017-07-17T03:21:40.160Z,8.30
2017-07-17T03:24:16.714Z,8.83
2017-07-17T03:26:45.044Z,8.80
2017-07-17T03:29:13.379Z,8.37
2017-07-17T03:31:42.194Z,9.63
2017-07-17T03:34:10.513Z,9.00
2017-07-17T03:36:38.886Z,9.57
2017-07-17T03:39:07.842Z,8.87
2017-07-17T03:41:36.165Z,9.60
2017-07-17T03:44:04.497Z,10.43
2017-07-17T03:46:34.310Z,9.57
2017-07-17T03:49:02.655Z,8.43
2017-07-17T03:51:30.988Z,8.60
2017-07-17T03:53:59.617Z,8.80
2017-07-17T03:56:27.973Z,9.80
2017-07-17T03:58:56.305Z,8.33
2017-07-17T04:01:24.961Z,10.20
2017-07-17T04:03:53.305Z,10.17
2017-07-17T04:06:22.003Z,10.37
2017-07-17T04:08:50.869Z,8.87
2017-07-17T04:11:19.219Z,9.03
2017-07-17T04:13:47.604Z,8.97
2017-07-17T04:16:16.506Z,8.70
2017-07-17T04:18:44.834Z,9.87
2017-07-17T04:21:13.221Z,9.77
2017-07-17T04:23:41.969Z,8.83
2017-07-17T04:26:10.305Z,9.83
2017-07-17T04:28:38.649Z,9.93
2017-07-17T04:31:07.818Z,9.60
2017-07-17T04:33:36.144Z,11.10
2017-07-17T04:36:04.495Z,9.83
2017-07-17T04:38:33.155Z,10.43
2017-07-17T04:41:02.267Z,11.00
2017-07-17T04:43:30.587Z,10.17
2017-07-17T04:45:59.367Z,11.37
2017-07-17T04:48:27.715Z,10.00
2017-07-17T04:50:56.049Z,10.93
2017-07-17T04:53:24.913Z,10.90
2017-07-17T04:55:53.260Z,10.30
2017-07-17T04:58:21.586Z,10.03
2017-07-17T05:00:50.409Z,10.77
2017-07-17T05:03:18.751Z,10.63
2017-07-17T05:05:47.092Z,10.67
2017-07-17T05:08:15.750Z,10.37
2017-07-17T05:10:45.230Z,9.60
2017-07-17T05:13:13.567Z,10.13
2017-07-17T05:15:42.541Z,11.00
2017-07-17T05:18:10.878Z,11.80
2017-07-17T05:20:39.204Z,10.67
2017-07-17T05:23:07.836Z,11.27
2017-07-17T05:25:36.182Z,11.10
2017-07-17T05:28:04.519Z,11.07
2017-07-17T05:30:33.410Z,11.10
2017-07-17T05:33:01.748Z,11.47
2017-07-17T05:35:30.108Z,10.00
2017-07-17T05:37:58.877Z,10.70
2017-07-17T05:40:27.223Z,11.03
2017-07-17T05:42:55.575Z,10.40
2017-07-17T05:45:24.246Z,11.40
2017-07-17T05:47:52.590Z,10.57
2017-07-17T05:50:20.958Z,11.10
2017-07-17T05:52:50.579Z,11.10
2017-07-17T05:55:18.925Z,10.67
2017-07-17T05:57:47.264Z,9.07
2017-07-17T06:00:16.425Z,9.93
2017-07-17T06:02:44.799Z,10.80
2017-07-17T06:05:13.913Z,9.80
2017-07-17T06:07:42.672Z,10.80
2017-07-17T06:10:11.032Z,10.67
2017-07-17T06:12:39.974Z,11.50
2017-07-17T06:15:08.609Z,11.00
2017-07-17T06:17:36.949Z,12.40
2017-07-17T06:20:05.302Z,12.33
2017-07-17T06:22:34.258Z,12.67
2017-07-17T06:25:02.593Z,11.93
2017-07-17T06:27:30.949Z,10.37
2017-07-17T06:29:59.847Z,9.60
2017-07-17T06:32:28.208Z,8.83
2017-07-17T06:34:56.557Z,9.20
2017-07-17T06:37:25.203Z,8.80
2017-07-17T06:39:53.539Z,8.50
2017-07-17T06:42:21.905Z,8.23
2017-07-17T06:44:50.747Z,7.70
2017-07-17T06:47:19.093Z,7.43
2017-07-17T06:49:47.427Z,5.63
2017-07-17T06:52:16.097Z,4.87
2017-07-17T06:54:44.439Z,5.17
2017-07-17T06:57:12.760Z,5.20
2017-07-17T06:59:41.425Z,4.53
2017-07-17T07:02:09.746Z,4.17
2017-07-17T07:04:38.049Z,3.70
2017-07-17T07:07:07.087Z,4.27
2017-07-17T07:09:35.421Z,3.83
2017-07-17T07:12:03.759Z,3.60
2017-07-17T07:14:32.767Z,3.57
2017-07-17T07:17:01.109Z,4.03
2017-07-17T07:19:30.202Z,4.03
2017-07-17T07:21:59.618Z,4.27
2017-07-17T07:24:27.990Z,10.60
2017-07-17T07:26:57.135Z,3.10
2017-07-17T07:29:25.943Z,2.60
2017-07-17T07:31:54.290Z,3.30
2017-07-17T07:34:22.617Z,2.40
2017-07-17T07:36:51.561Z,3.20
2017-07-17T07:39:19.887Z,3.10
2017-07-17T07:41:48.987Z,3.70
2017-07-17T07:44:18.608Z,4.73
2017-07-17T07:46:46.956Z,2.83
2017-07-17T07:49:15.277Z,2.83
2017-07-17T07:51:44.411Z,2.20
2017-07-17T07:54:12.745Z,1.60
2017-07-17T07:56:41.103Z,1.97
2017-07-17T07:59:10.530Z,2.43
2017-07-17T08:01:38.860Z,2.43
2017-07-17T08:04:07.211Z,2.43
2017-07-17T08:06:35.973Z,2.20
2017-07-17T08:09:04.316Z,2.43
2017-07-17T08:11:32.661Z,1.83
2017-07-17T08:14:01.697Z,2.33
2017-07-17T08:16:30.040Z,2.80
2017-07-17T08:18:58.382Z,1.90
2017-07-17T08:21:27.268Z,1.90
2017-07-17T08:23:55.610Z,2.00
2017-07-17T08:26:23.955Z,2.33
2017-07-17T08:28:52.611Z,2.67
2017-07-17T08:31:20.945Z,2.00
2017-07-17T08:33:49.288Z,2.37
2017-07-17T08:36:18.151Z,2.63
2017-07-17T08:38:46.502Z,2.00
2017-07-17T08:41:14.835Z,5.43
2017-07-17T08:43:43.512Z,2.40
2017-07-17T08:46:11.842Z,2.40
2017-07-17T08:48:40.168Z,1.50
2017-07-17T08:51:09.053Z,2.13
2017-07-17T08:53:37.389Z,1.97
2017-07-17T08:56:05.718Z,1.90
2017-07-17T08:58:34.890Z,2.00
2017-07-17T09:01:03.230Z,2.10
2017-07-17T09:03:31.565Z,2.20
2017-07-17T09:06:00.357Z,2.23
2017-07-17T09:08:28.700Z,2.10
2017-07-17T09:10:57.062Z,2.23
2017-07-17T09:13:25.734Z,2.50
2017-07-17T09:15:54.079Z,2.00
2017-07-17T09:18:22.409Z,1.50
2017-07-17T09:20:51.395Z,1.87
2017-07-17T09:23:19.737Z,2.10
2017-07-17T09:25:48.076Z,1.77
2017-07-17T09:28:16.901Z,1.80
2017-07-17T09:30:45.233Z,2.63
2017-07-17T09:33:13.592Z,1.93
2017-07-17T09:35:42.222Z,1.73
2017-07-17T09:38:10.563Z,1.87
2017-07-17T09:40:38.924Z,1.37
2017-07-17T09:43:07.983Z,1.43
2017-07-17T09:45:36.330Z,1.50
2017-07-17T09:48:04.656Z,1.60
2017-07-17T09:50:33.434Z,2.20
2017-07-17T09:53:01.759Z,1.60
2017-07-17T09:55:30.158Z,2.53
2017-07-17T09:57:58.935Z,1.87
2017-07-17T10:00:27.240Z,1.70
2017-07-17T10:02:56.350Z,1.40
2017-07-17T10:05:25.334Z,1.80
2017-07-17T10:07:53.676Z,1.83
2017-07-17T10:10:22.010Z,1.40
2017-07-17T10:12:50.772Z,1.40
2017-07-17T10:15:19.118Z,1.57
2017-07-17T10:17:47.437Z,1.73
2017-07-17T10:20:16.130Z,1.70
2017-07-17T10:22:45.233Z,1.70
2017-07-17T10:25:14.342Z,1.87
2017-07-17T10:27:43.316Z,1.97
2017-07-17T10:30:11.643Z,2.07
2017-07-17T10:32:39.976Z,1.97
2017-07-17T10:35:08.671Z,2.20
2017-07-17T10:37:37.047Z,2.60
2017-07-17T10:40:05.391Z,1.90
2017-07-17T10:42:33.995Z,1.90
2017-07-17T10:45:02.329Z,2.30
2017-07-17T10:47:30.661Z,1.90
2017-07-17T10:49:59.639Z,1.70
2017-07-17T10:52:27.987Z,2.30
2017-07-17T10:54:56.341Z,2.30
2017-07-17T10:57:25.002Z,2.07
2017-07-17T10:59:53.348Z,2.23
2017-07-17T11:02:21.692Z,3.10
2017-07-17T11:04:50.543Z,2.07
2017-07-17T11:07:18.890Z,1.93
2017-07-17T11:09:47.235Z,2.13
2017-07-17T11:12:15.914Z,1.80
2017-07-17T11:14:44.233Z,2.20
2017-07-17T11:17:12.578Z,2.27
2017-07-17T11:19:41.225Z,1.87
2017-07-17T11:22:09.579Z,1.90
2017-07-17T11:24:37.930Z,2.37
2017-07-17T11:27:06.669Z,2.33
2017-07-17T11:29:35.008Z,1.80
2017-07-17T11:32:03.324Z,1.97
2017-07-17T11:34:32.840Z,1.57
2017-07-17T11:37:01.184Z,1.60
2017-07-17T11:39:29.507Z,2.23
2017-07-17T11:41:58.372Z,1.90
2017-07-17T11:44:26.714Z,1.87
2017-07-17T11:57:09.923Z,2.10
2017-07-17T11:59:38.858Z,1.93
2017-07-17T12:02:07.189Z,1.80
2017-07-17T12:04:35.527Z,1.60
2017-07-17T12:07:04.299Z,1.77
2017-07-17T12:09:32.648Z,1.83
2017-07-17T12:12:01.005Z,1.50
2017-07-17T12:14:30.158Z,2.47
2017-07-17T12:16:58.579Z,1.40
2017-07-17T12:19:26.930Z,2.30
2017-07-17T12:21:55.814Z,1.77
2017-07-17T12:24:24.133Z,2.10
2017-07-17T12:26:52.486Z,1.77
2017-07-17T12:29:21.429Z,1.53
2017-07-17T12:31:49.767Z,1.87
2017-07-17T12:34:18.107Z,2.10
2017-07-17T12:36:47.320Z,1.63
2017-07-17T12:39:15.659Z,2.00
2017-07-17T12:41:44.014Z,1.63
2017-07-17T12:44:12.761Z,1.93
2017-07-17T12:46:41.110Z,2.10
2017-07-17T12:49:09.472Z,4.20
2017-07-17T12:51:38.414Z,2.87
2017-07-17T12:54:06.746Z,1.80
2017-07-17T12:56:35.077Z,2.70
2017-07-17T12:59:05.294Z,1.90
2017-07-17T13:01:33.648Z,2.00
2017-07-17T13:04:02.766Z,2.13
2017-07-17T13:06:31.436Z,1.80
2017-07-17T13:08:59.808Z,2.40
2017-07-17T13:11:28.153Z,1.80
2017-07-17T13:13:56.788Z,2.03
2017-07-17T13:16:25.111Z,2.40
2017-07-17T13:18:53.460Z,2.30
2017-07-17T13:21:22.644Z,1.47
2017-07-17T13:23:50.986Z,2.30
2017-07-17T13:26:19.339Z,1.90
2017-07-17T13:28:48.086Z,2.40
2017-07-17T13:31:16.413Z,1.90
2017-07-17T13:33:44.742Z,1.80
2017-07-17T13:36:14.396Z,2.00
2017-07-17T13:38:42.768Z,1.60
2017-07-17T13:41:11.153Z,2.30
2017-07-17T13:43:40.001Z,2.33
2017-07-17T13:46:08.358Z,1.80
2017-07-17T13:48:36.704Z,1.63
2017-07-17T13:51:05.452Z,1.50
2017-07-17T13:53:33.796Z,1.90
2017-07-17T13:56:02.160Z,1.80
2017-07-17T13:58:30.893Z,2.87
2017-07-17T14:00:59.259Z,1.63
2017-07-17T14:03:28.353Z,2.07
2017-07-17T14:05:58.161Z,2.17
2017-07-17T14:08:26.505Z,2.07
2017-07-17T14:10:54.854Z,1.77
2017-07-17T14:13:23.632Z,2.37
2017-07-17T14:15:51.968Z,2.17
2017-07-17T14:18:20.330Z,1.50
2017-07-17T14:20:49.075Z,2.07
2017-07-17T14:23:17.415Z,1.87
2017-07-17T14:25:45.785Z,1.67
2017-07-17T14:28:15.123Z,1.67
2017-07-17T14:30:43.465Z,1.70
2017-07-17T14:33:11.862Z,1.70
2017-07-17T14:35:40.677Z,1.73
2017-07-17T14:38:09.016Z,1.70
2017-07-17T14:40:37.383Z,1.60
2017-07-17T14:43:06.000Z,3.07
2017-07-17T14:45:34.343Z,1.93
2017-07-17T14:48:02.669Z,1.70
2017-07-17T14:50:32.486Z,2.00
2017-07-17T14:53:00.839Z,1.40
2017-07-17T14:55:29.170Z,1.60
2017-07-17T14:57:57.809Z,1.60
2017-07-17T15:00:26.938Z,1.50
2017-07-17T15:02:55.281Z,1.83
2017-07-17T15:05:24.228Z,1.70
2017-07-17T15:07:52.596Z,1.77
2017-07-17T15:10:20.960Z,1.63
2017-07-17T15:12:50.088Z,1.90
2017-07-17T15:15:18.409Z,1.77
2017-07-17T15:17:46.732Z,1.70
2017-07-17T15:20:15.694Z,1.97
2017-07-17T15:22:44.030Z,1.50
2017-07-17T15:25:12.385Z,1.40
2017-07-17T15:27:41.031Z,1.83
2017-07-17T15:30:10.139Z,1.67
2017-07-17T15:32:38.485Z,1.83
2017-07-17T15:35:07.621Z,1.93
2017-07-17T15:37:35.988Z,1.30
2017-07-17T15:40:04.381Z,1.70
2017-07-17T15:42:33.137Z,1.80
2017-07-17T15:45:02.261Z,1.63
2017-07-17T15:47:30.610Z,1.70
2017-07-17T15:49:59.290Z,2.30
2017-07-17T15:52:27.632Z,2.40
2017-07-17T15:54:55.975Z,1.90
2017-07-17T15:57:25.450Z,2.80
2017-07-17T15:59:53.800Z,1.50
2017-07-17T16:02:22.150Z,2.10
2017-07-17T16:04:51.149Z,1.47
2017-07-17T16:07:19.511Z,2.20
2017-07-17T16:09:47.869Z,1.87
2017-07-17T16:12:16.678Z,2.00
2017-07-17T16:14:45.053Z,2.30
2017-07-17T16:17:13.391Z,2.50
2017-07-17T16:19:42.534Z,2.37
2017-07-17T16:22:10.873Z,1.67
2017-07-17T16:24:39.210Z,2.00
2017-07-17T16:27:07.891Z,3.00
2017-07-17T16:29:36.244Z,1.90
2017-07-17T16:32:04.580Z,2.00
2017-07-17T16:34:33.428Z,1.70
2017-07-17T16:37:01.775Z,2.17
2017-07-17T16:39:30.133Z,2.03
2017-07-17T16:41:59.127Z,1.90
2017-07-17T16:44:27.488Z,2.23
2017-07-17T16:46:55.840Z,2.13
2017-07-17T16:49:24.521Z,1.40
2017-07-17T16:51:52.951Z,1.63
2017-07-17T16:54:21.298Z,1.63
2017-07-17T16:56:50.167Z,1.37
2017-07-17T16:59:18.499Z,2.57
2017-07-17T17:01:46.825Z,2.50
2017-07-17T17:04:16.652Z,2.50
2017-07-17T17:06:45.005Z,1.87
2017-07-17T17:09:14.114Z,1.80
2017-07-17T17:11:43.600Z,2.00
2017-07-17T17:14:12.734Z,1.53
2017-07-17T17:16:41.106Z,2.60
2017-07-17T17:19:10.008Z,1.90
2017-07-17T17:21:38.347Z,1.90
2017-07-17T17:24:06.685Z,2.57
2017-07-17T17:26:35.781Z,2.67
2017-07-17T17:29:04.156Z,2.03
2017-07-17T17:31:32.509Z,1.80
2017-07-17T17:34:01.127Z,2.43
2017-07-17T17:36:29.465Z,2.77
2017-07-17T17:38:58.551Z,2.10
2017-07-17T17:41:27.167Z,2.30
2017-07-17T17:43:55.535Z,2.70
2017-07-17T17:46:23.892Z,2.57
2017-07-17T17:48:52.987Z,2.90
2017-07-17T17:51:21.340Z,2.20
2017-07-17T17:53:49.795Z,2.63
2017-07-17T17:56:18.424Z,2.80
2017-07-17T17:58:46.789Z,2.20
2017-07-17T18:01:15.142Z,3.10
2017-07-17T18:03:43.999Z,2.30
2017-07-17T18:06:12.342Z,2.23
2017-07-17T18:08:40.678Z,2.30
2017-07-17T18:11:09.527Z,2.07
2017-07-17T18:13:37.870Z,2.23
2017-07-17T18:16:06.241Z,1.90
2017-07-17T18:18:34.918Z,1.70
2017-07-17T18:21:03.275Z,2.50
2017-07-17T18:23:31.620Z,1.90
2017-07-17T18:26:00.442Z,1.40
2017-07-17T18:28:28.783Z,1.97
2017-07-17T18:30:57.125Z,2.10
2017-07-17T18:33:26.165Z,2.20
2017-07-17T18:35:55.275Z,2.20
2017-07-17T18:38:24.401Z,2.13
2017-07-17T18:40:53.019Z,2.00
2017-07-17T18:43:21.362Z,2.00
2017-07-17T18:45:49.710Z,1.93
2017-07-17T18:48:18.621Z,2.63
2017-07-17T18:50:46.956Z,1.80
2017-07-17T18:53:15.306Z,2.33
2017-07-17T18:55:44.464Z,2.50
2017-07-17T18:58:12.811Z,2.03
2017-07-17T19:00:41.151Z,2.97
2017-07-17T19:03:09.883Z,2.17
2017-07-17T19:05:38.219Z,2.33
2017-07-17T19:08:06.547Z,2.70
2017-07-17T19:10:35.940Z,2.10
2017-07-17T19:13:04.318Z,1.80
2017-07-17T19:15:33.426Z,2.20
2017-07-17T19:18:03.259Z,2.17
2017-07-17T19:20:31.597Z,2.17
2017-07-17T19:22:59.977Z,2.57
2017-07-17T19:25:28.828Z,2.53
2017-07-17T19:27:57.173Z,2.63
2017-07-17T19:30:25.516Z,2.37
2017-07-17T19:32:54.366Z,2.80
2017-07-17T19:35:22.699Z,2.83
2017-07-17T19:37:51.044Z,2.43
2017-07-17T19:40:19.865Z,3.10
2017-07-17T19:42:48.214Z,2.57
2017-07-17T19:45:16.567Z,3.20
2017-07-17T19:47:45.447Z,2.70
2017-07-17T19:50:13.781Z,3.30
2017-07-17T19:52:42.113Z,3.40
2017-07-17T19:55:10.740Z,2.67
2017-07-17T19:57:39.097Z,2.90
2017-07-17T20:00:07.489Z,2.40
2017-07-17T20:02:36.381Z,2.70
2017-07-17T20:05:04.718Z,3.00
2017-07-17T20:07:33.045Z,3.43
2017-07-17T20:10:01.738Z,3.03
2017-07-17T20:12:30.074Z,3.10
2017-07-17T20:14:58.416Z,3.17
2017-07-17T20:17:28.058Z,2.90
2017-07-17T20:19:56.418Z,3.13
2017-07-17T20:22:25.548Z,3.40
2017-07-17T20:24:54.515Z,3.17
2017-07-17T20:27:22.847Z,3.03
2017-07-17T20:29:51.175Z,3.17
2017-07-17T20:32:20.200Z,3.50
2017-07-17T20:34:48.553Z,2.80
2017-07-17T20:37:16.902Z,10.37
2017-07-17T20:39:45.554Z,3.20
2017-07-17T20:42:13.893Z,3.27
2017-07-17T20:44:42.246Z,3.90
2017-07-17T20:47:12.071Z,3.40
2017-07-17T20:49:40.419Z,3.70
2017-07-17T20:52:08.780Z,2.97
2017-07-17T20:54:37.729Z,2.80
2017-07-17T20:57:06.139Z,2.80
2017-07-17T20:59:34.483Z,3.50
2017-07-17T21:02:03.176Z,3.70
2017-07-17T21:04:31.537Z,3.70
2017-07-17T21:06:59.906Z,3.07
2017-07-17T21:09:28.657Z,3.30
2017-07-17T21:11:57.027Z,4.63
2017-07-17T21:14:25.391Z,3.60
2017-07-17T21:16:54.341Z,3.90
2017-07-17T21:19:22.688Z,4.17
2017-07-17T21:21:51.022Z,4.50
2017-07-17T21:24:19.727Z,5.03
2017-07-17T21:26:48.087Z,4.40
2017-07-17T21:29:16.442Z,4.00
2017-07-17T21:31:45.244Z,4.20
2017-07-17T21:34:14.339Z,4.00
2017-07-17T21:36:43.429Z,3.57
2017-07-17T21:39:12.255Z,4.50
2017-07-17T21:41:40.591Z,4.20
2017-07-17T21:44:08.954Z,4.60
2017-07-17T21:46:37.888Z,4.80
2017-07-17T21:49:06.240Z,4.80
2017-07-17T21:51:34.578Z,4.50
2017-07-17T21:54:03.354Z,4.13
2017-07-17T21:56:31.711Z,3.60
2017-07-17T21:59:00.808Z,4.30
2017-07-17T22:01:30.214Z,5.00
2017-07-17T22:03:58.558Z,3.90
2017-07-17T22:06:26.907Z,4.10
2017-07-17T22:08:55.676Z,4.00
2017-07-17T22:11:24.025Z,4.53
2017-07-17T22:13:53.154Z,3.90
2017-07-17T22:16:21.888Z,4.13
2017-07-17T22:18:50.230Z,3.87
2017-07-17T22:21:18.583Z,4.00
2017-07-17T22:23:47.378Z,4.40
2017-07-17T22:26:15.710Z,3.90
2017-07-17T22:28:44.053Z,4.10
2017-07-17T22:31:12.917Z,4.03
2017-07-17T22:33:41.272Z,3.93
2017-07-17T22:36:09.626Z,3.70
2017-07-17T22:38:38.662Z,3.77
2017-07-17T22:41:07.014Z,3.67
2017-07-17T22:43:35.373Z,4.27
2017-07-17T22:46:04.315Z,3.93
2017-07-17T22:48:32.674Z,4.50
2017-07-17T22:51:01.787Z,3.60
2017-07-17T22:53:30.446Z,4.83
2017-07-17T22:55:58.791Z,3.40
2017-07-17T22:58:27.170Z,4.10
2017-07-17T23:00:56.270Z,4.10
2017-07-17T23:03:24.607Z,4.70
2017-07-17T23:05:53.711Z,5.10
2017-07-17T23:08:23.319Z,4.30
2017-07-17T23:10:51.658Z,4.70
2017-07-17T23:13:19.987Z,3.77
2017-07-17T23:15:48.772Z,3.80
2017-07-17T23:18:17.107Z,3.70
2017-07-17T23:20:45.451Z,3.63
2017-07-17T23:23:14.364Z,4.00
2017-07-17T23:25:42.693Z,4.27
2017-07-17T23:28:11.037Z,4.00
2017-07-17T23:30:39.862Z,3.70
2017-07-17T23:33:08.199Z,4.47
2017-07-17T23:35:36.550Z,4.10
2017-07-17T23:38:05.243Z,4.40
2017-07-17T23:40:33.586Z,3.70
2017-07-17T23:43:01.927Z,3.90
2017-07-17T23:45:30.748Z,3.87
2017-07-17T23:47:59.084Z,4.20
2017-07-17T23:50:27.450Z,4.50
2017-07-17T23:52:56.128Z,4.07
2017-07-17T23:55:24.458Z,5.37
2017-07-17T23:57:52.803Z,4.70
